Time;durP1;ratioP1;P1;durP2;ratioP2;P2;SDS_P1;SDS_P2;PMS_P1;PMS_P2;Temp;Humidity;BMP_temperature;BMP_pressure;BME280_temperature;BME280_humidity;BME280_pressure;Samples;Min_cycle;Max_cycle;Signal;HPM_P1;HPM_P2
2021/05/27 00:01:22;;;;;;;4.43;4.22;;;17.10;98.20;;;;;;5051762;28;20290;-73
2021/05/27 00:03:48;;;;;;;4.25;3.95;;;17.10;98.20;;;;;;5050657;28;20187;-73
2021/05/27 00:06:14;;;;;;;3.90;3.75;;;17.10;98.20;;;;;;5051247;28;20176;-74
2021/05/27 00:08:39;;;;;;;4.60;4.25;;;17.00;98.20;;;;;;5053833;28;20199;-73
2021/05/27 00:11:05;;;;;;;4.38;4.07;;;17.00;98.20;;;;;;5051986;28;20641;-73
2021/05/27 00:13:31;;;;;;;4.43;4.13;;;17.00;98.20;;;;;;5049358;28;20753;-71
2021/05/27 00:15:58;;;;;;;4.78;3.88;;;17.00;98.30;;;;;;5046602;28;20188;-73
2021/05/27 00:18:24;;;;;;;4.35;3.90;;;17.10;98.50;;;;;;5046840;28;20175;-73
2021/05/27 00:20:50;;;;;;;4.88;4.13;;;17.00;98.50;;;;;;5046782;28;20210;-72
2021/05/27 00:23:16;;;;;;;4.72;4.25;;;17.00;98.50;;;;;;5045977;28;20187;-73
2021/05/27 00:25:42;;;;;;;4.82;4.43;;;17.00;98.50;;;;;;5044512;28;20202;-73
2021/05/27 00:28:07;;;;;;;4.35;4.05;;;16.90;98.50;;;;;;5052936;28;20267;-73
2021/05/27 00:30:34;;;;;;;4.32;4.13;;;16.90;98.50;;;;;;5052453;28;20179;-73
2021/05/27 00:33:00;;;;;;;5.00;4.65;;;16.90;98.50;;;;;;5058722;28;20222;-73
2021/05/27 00:35:25;;;;;;;5.07;4.70;;;16.90;98.50;;;;;;5058566;28;20184;-73
2021/05/27 00:37:51;;;;;;;4.93;4.57;;;16.90;98.50;;;;;;5054922;28;20194;-73
2021/05/27 00:40:17;;;;;;;4.97;4.68;;;16.90;98.50;;;;;;5053975;28;20675;-73
2021/05/27 00:42:45;;;;;;;4.25;4.05;;;16.90;98.50;;;;;;5050811;28;20586;-73
2021/05/27 00:45:14;;;;;;;5.70;5.30;;;16.90;98.50;;;;;;5049567;28;20188;-73
2021/05/27 00:47:41;;;;;;;4.57;4.38;;;16.90;98.50;;;;;;5043890;28;20613;-73
2021/05/27 00:50:10;;;;;;;5.90;5.50;;;16.90;98.50;;;;;;5052096;28;20236;-73
2021/05/27 00:52:36;;;;;;;6.40;5.25;;;16.90;98.50;;;;;;5049118;28;20180;-73
2021/05/27 00:55:04;;;;;;;5.80;5.30;;;16.90;98.50;;;;;;5050546;28;20689;-72
2021/05/27 00:57:32;;;;;;;5.45;5.07;;;16.90;98.50;;;;;;5053005;28;20210;-73
2021/05/27 00:59:59;;;;;;;8.93;5.90;;;16.90;98.50;;;;;;5045926;28;20649;-73
2021/05/27 01:02:25;;;;;;;6.43;5.78;;;16.90;98.50;;;;;;5044346;28;20212;-72
2021/05/27 01:04:51;;;;;;;5.45;5.15;;;16.90;98.50;;;;;;5053616;28;20184;-73
2021/05/27 01:07:17;;;;;;;5.43;5.13;;;16.90;98.50;;;;;;5055121;28;20656;-73
2021/05/27 01:09:43;;;;;;;5.75;5.35;;;16.90;98.50;;;;;;5052018;28;20183;-73
2021/05/27 01:12:09;;;;;;;5.22;4.93;;;17.00;98.50;;;;;;5054863;28;20187;-73
2021/05/27 01:17:23;;;;;;;5.78;5.28;;;17.00;98.50;;;;;;5042476;28;20195;-72
2021/05/27 01:19:49;;;;;;;5.03;4.63;;;17.00;98.50;;;;;;5040841;28;20574;-72
2021/05/27 01:22:15;;;;;;;6.38;5.50;;;17.00;98.50;;;;;;5051150;28;20211;-73
2021/05/27 01:24:40;;;;;;;6.28;5.72;;;17.00;98.50;;;;;;5049695;28;20600;-72
2021/05/27 01:27:06;;;;;;;5.07;4.68;;;17.00;98.50;;;;;;5055237;28;20245;-72
2021/05/27 01:29:32;;;;;;;6.70;5.43;;;17.00;98.50;;;;;;5045236;28;20180;-72
2021/05/27 01:31:58;;;;;;;6.85;6.28;;;17.10;98.50;;;;;;5051881;28;20187;-71
2021/05/27 01:34:23;;;;;;;5.40;5.10;;;17.00;98.50;;;;;;5055661;28;20555;-72
2021/05/27 01:36:49;;;;;;;6.18;5.20;;;17.00;98.50;;;;;;5044828;28;20184;-72
2021/05/27 01:39:15;;;;;;;5.60;5.20;;;16.90;98.50;;;;;;5055940;28;20222;-72
2021/05/27 01:41:40;;;;;;;8.82;6.05;;;16.90;98.50;;;;;;5052842;28;20219;-72
2021/05/27 01:44:06;;;;;;;6.22;5.47;;;16.90;98.50;;;;;;5043156;28;20680;-70
2021/05/27 01:46:32;;;;;;;6.70;6.10;;;16.80;98.50;;;;;;5055071;28;20206;-72
2021/05/27 01:48:58;;;;;;;6.07;5.47;;;16.80;98.50;;;;;;5045302;28;20806;-72
2021/05/27 01:51:23;;;;;;;6.40;5.93;;;16.80;98.50;;;;;;5048923;28;20558;-73
2021/05/27 01:53:49;;;;;;;9.77;6.32;;;16.80;98.50;;;;;;5046986;28;20187;-72
2021/05/27 01:56:15;;;;;;;6.72;6.03;;;16.80;98.50;;;;;;5051111;28;20187;-73
2021/05/27 01:58:40;;;;;;;8.88;6.18;;;16.80;98.50;;;;;;5041337;28;20187;-73
2021/05/27 02:01:07;;;;;;;7.20;6.45;;;16.80;98.50;;;;;;5059402;28;20215;-73
2021/05/27 02:03:33;;;;;;;7.78;6.47;;;16.70;98.50;;;;;;5050786;28;20190;-72
2021/05/27 02:05:59;;;;;;;7.13;5.68;;;16.70;98.50;;;;;;5041946;28;20214;-73
2021/05/27 02:08:25;;;;;;;7.30;6.53;;;16.70;98.50;;;;;;5046089;28;20180;-73
2021/05/27 02:10:50;;;;;;;7.20;6.70;;;16.70;98.50;;;;;;5047808;28;20698;-73
2021/05/27 02:13:16;;;;;;;6.75;6.03;;;16.70;98.50;;;;;;5044810;28;20192;-73
2021/05/27 02:15:42;;;;;;;6.10;5.55;;;16.70;98.50;;;;;;5041531;28;20673;-73
2021/05/27 02:18:08;;;;;;;5.20;4.85;;;16.70;98.50;;;;;;5044350;28;20260;-73
2021/05/27 02:20:33;;;;;;;5.68;5.15;;;16.70;98.50;;;;;;5042324;28;20208;-73
2021/05/27 02:22:59;;;;;;;6.55;5.10;;;16.70;98.50;;;;;;5050205;28;20717;-73
2021/05/27 02:25:25;;;;;;;5.25;4.50;;;16.70;98.50;;;;;;5050281;28;20317;-73
2021/05/27 02:27:51;;;;;;;5.00;4.60;;;16.70;98.50;;;;;;5046962;28;20976;-73
2021/05/27 02:30:17;;;;;;;7.55;4.75;;;16.70;98.50;;;;;;5047084;28;20571;-73
2021/05/27 02:32:44;;;;;;;6.10;4.97;;;16.70;98.50;;;;;;5048432;28;20229;-73
2021/05/27 02:35:10;;;;;;;5.38;4.88;;;16.80;98.50;;;;;;5055796;28;20237;-73
2021/05/27 02:37:35;;;;;;;5.82;5.32;;;16.80;98.50;;;;;;5051452;28;20319;-73
2021/05/27 02:40:01;;;;;;;4.93;4.53;;;16.80;98.50;;;;;;5053912;28;20870;-73
2021/05/27 02:42:27;;;;;;;5.53;4.93;;;16.70;98.50;;;;;;5049964;28;20691;-73
2021/05/27 02:44:53;;;;;;;5.38;4.97;;;16.70;98.50;;;;;;5052199;28;20262;-72
2021/05/27 02:47:19;;;;;;;4.68;4.28;;;16.70;98.50;;;;;;5048007;28;20269;-72
2021/05/27 02:49:44;;;;;;;4.38;4.03;;;16.70;98.50;;;;;;5045821;28;20192;-73
2021/05/27 02:52:10;;;;;;;4.47;4.20;;;16.70;98.50;;;;;;5048183;28;20249;-73
2021/05/27 02:54:36;;;;;;;5.10;3.70;;;16.70;98.50;;;;;;5051482;28;20190;-73
2021/05/27 02:57:01;;;;;;;6.35;3.85;;;16.70;98.50;;;;;;5045515;28;20191;-73
2021/05/27 02:59:27;;;;;;;4.60;4.20;;;16.60;98.50;;;;;;5047739;28;20199;-73
2021/05/27 03:01:53;;;;;;;4.78;4.35;;;16.60;98.50;;;;;;5047716;28;20237;-73
2021/05/27 03:04:19;;;;;;;5.28;4.78;;;16.60;98.50;;;;;;5038947;28;20203;-73
2021/05/27 03:06:46;;;;;;;5.47;5.13;;;16.50;98.50;;;;;;5045333;28;20245;-73
2021/05/27 03:09:11;;;;;;;5.18;4.75;;;16.50;98.50;;;;;;5051689;28;20191;-73
2021/05/27 03:11:37;;;;;;;4.32;3.95;;;16.50;98.50;;;;;;5045993;28;20183;-73
2021/05/27 03:14:03;;;;;;;4.03;3.78;;;16.50;98.50;;;;;;5047992;28;20199;-72
2021/05/27 03:16:29;;;;;;;4.72;3.92;;;16.50;98.50;;;;;;5044413;28;20188;-72
2021/05/27 03:18:54;;;;;;;4.93;4.53;;;16.50;98.50;;;;;;5044572;28;20175;-71
2021/05/27 03:21:39;;;;;;;4.75;4.40;;;16.50;98.50;;;;;;5043704;28;20208;-71
2021/05/27 03:24:05;;;;;;;4.25;4.05;;;16.50;98.50;;;;;;5046803;28;20191;-73
2021/05/27 03:26:30;;;;;;;8.40;4.32;;;16.50;98.50;;;;;;5047364;28;20184;-73
2021/05/27 03:28:56;;;;;;;4.55;3.83;;;16.50;98.50;;;;;;5046364;28;20199;-73
2021/05/27 03:31:22;;;;;;;4.68;4.28;;;16.50;98.50;;;;;;5046823;28;20176;-73
2021/05/27 03:33:47;;;;;;;3.70;3.50;;;16.50;98.50;;;;;;5046503;28;20260;-73
2021/05/27 03:36:13;;;;;;;4.30;4.10;;;16.50;98.50;;;;;;5048280;28;20607;-73
2021/05/27 03:38:39;;;;;;;3.33;3.22;;;16.60;98.50;;;;;;5044123;28;20184;-73
2021/05/27 03:41:04;;;;;;;4.00;3.80;;;16.60;98.50;;;;;;5046107;28;20571;-73
2021/05/27 03:43:30;;;;;;;4.32;3.60;;;16.70;98.50;;;;;;5055329;28;20206;-73
2021/05/27 03:45:56;;;;;;;4.05;3.85;;;16.70;98.50;;;;;;5047372;28;20179;-73
2021/05/27 03:48:22;;;;;;;3.75;3.65;;;16.80;98.50;;;;;;5041917;28;20176;-73
2021/05/27 03:50:48;;;;;;;3.60;3.42;;;16.80;98.50;;;;;;5046784;28;20274;-73
2021/05/27 03:53:14;;;;;;;4.40;4.18;;;16.80;98.50;;;;;;5044519;28;20270;-73
2021/05/27 03:55:39;;;;;;;3.42;3.33;;;16.90;98.50;;;;;;5046965;28;20176;-73
2021/05/27 04:00:40;;;;;;;4.32;4.07;;;16.90;98.50;;;;;;5045883;28;20191;-73
2021/05/27 04:00:51;;;;;;;3.80;3.60;;;16.90;98.50;;;;;;5046390;28;20361;-72
2021/05/27 04:03:16;;;;;;;4.65;4.32;;;16.80;97.50;;;;;;5045293;28;20267;-72
2021/05/27 04:08:27;;;;;;;3.85;3.65;;;16.90;97.90;;;;;;5050903;28;20613;-72
2021/05/27 04:10:52;;;;;;;3.45;3.28;;;16.90;97.80;;;;;;5049164;28;20184;-72
2021/05/27 04:13:19;;;;;;;3.72;3.53;;;17.00;97.90;;;;;;5048526;28;20188;-73
2021/05/27 04:15:46;;;;;;;3.75;3.55;;;17.00;97.80;;;;;;5052033;28;20833;-71
2021/05/27 04:18:17;;;;;;;3.63;3.35;;;17.10;97.20;;;;;;5050485;28;20544;-71
2021/05/27 04:20:49;;;;;;;3.72;3.53;;;17.20;97.20;;;;;;5049063;28;20203;-72
2021/05/27 04:23:33;;;;;;;4.13;3.92;;;17.20;97.20;;;;;;5056131;28;20179;-73
2021/05/27 04:26:19;;;;;;;3.92;3.63;;;17.30;96.90;;;;;;5054884;28;20180;-71
2021/05/27 04:28:46;;;;;;;3.42;3.22;;;17.40;96.50;;;;;;5055862;28;20618;-73
2021/05/27 04:31:18;;;;;;;3.67;3.58;;;17.50;96.10;;;;;;5050202;28;20620;-73
2021/05/27 04:33:43;;;;;;;3.60;3.47;;;17.50;95.40;;;;;;5049527;28;20245;-73
2021/05/27 04:36:14;;;;;;;4.47;4.28;;;17.50;95.20;;;;;;5050944;28;20566;-72
2021/05/27 04:38:41;;;;;;;7.82;4.22;;;17.50;95.70;;;;;;5049187;28;20203;-72
2021/05/27 04:41:08;;;;;;;3.88;3.58;;;17.60;96.10;;;;;;5045366;28;20648;-72
2021/05/27 04:43:43;;;;;;;3.42;3.22;;;17.60;95.10;;;;;;5062473;28;20184;-73
2021/05/27 04:46:09;;;;;;;3.88;3.67;;;17.70;95.50;;;;;;5050046;28;20258;-72
2021/05/27 04:48:36;;;;;;;4.18;3.88;;;17.70;95.60;;;;;;5049217;28;20171;-73
2021/05/27 04:51:02;;;;;;;3.80;3.60;;;17.80;95.70;;;;;;5052438;28;20191;-74
2021/05/27 04:53:28;;;;;;;5.57;4.35;;;17.80;95.80;;;;;;5048109;28;20841;-74
2021/05/27 04:55:55;;;;;;;4.38;4.00;;;17.90;95.60;;;;;;5047732;28;20555;-75
2021/05/27 04:58:21;;;;;;;6.82;3.80;;;18.00;95.30;;;;;;5049296;28;20183;-73
2021/05/27 05:00:50;;;;;;;3.90;3.60;;;18.00;95.50;;;;;;5049468;28;20761;-74
2021/05/27 05:03:17;;;;;;;4.65;4.38;;;18.10;95.40;;;;;;5049078;28;20176;-74
2021/05/27 05:05:43;;;;;;;5.88;3.95;;;18.10;94.70;;;;;;5078404;28;20230;-73
2021/05/27 05:08:09;;;;;;;4.40;4.20;;;18.20;94.10;;;;;;5048955;28;20175;-74
2021/05/27 05:10:35;;;;;;;5.32;4.10;;;18.20;93.60;;;;;;5049089;28;20555;-74
2021/05/27 05:13:01;;;;;;;6.00;3.88;;;18.10;93.10;;;;;;5049607;28;20183;-72
2021/05/27 05:15:38;;;;;;;4.82;4.60;;;18.10;93.50;;;;;;5049160;28;20692;-72
2021/05/27 05:18:05;;;;;;;5.05;4.65;;;18.20;93.30;;;;;;5046703;28;20191;-72
2021/05/27 05:20:37;;;;;;;8.23;4.15;;;18.20;93.90;;;;;;5048356;28;20678;-72
2021/05/27 05:23:04;;;;;;;5.80;4.35;;;18.20;94.20;;;;;;5049198;28;20657;-69
2021/05/27 05:25:31;;;;;;;4.22;4.03;;;18.30;94.40;;;;;;5049055;28;20175;-69
2021/05/27 05:27:57;;;;;;;4.72;4.35;;;18.40;94.50;;;;;;5048925;28;20195;-69
2021/05/27 05:30:25;;;;;;;4.20;3.90;;;18.40;94.60;;;;;;5043447;28;20215;-70
2021/05/27 05:32:52;;;;;;;5.45;4.95;;;18.50;94.50;;;;;;5047100;28;20204;-70
2021/05/27 05:35:19;;;;;;;8.10;4.38;;;18.50;94.20;;;;;;5057666;28;20179;-71
2021/05/27 05:37:45;;;;;;;5.57;4.90;;;18.60;94.10;;;;;;5048732;28;20262;-72
2021/05/27 05:40:13;;;;;;;9.75;5.18;;;18.70;93.90;;;;;;5053412;28;20734;-72
2021/05/27 05:42:40;;;;;;;9.55;6.45;;;18.70;94.40;;;;;;5050682;28;20211;-72
2021/05/27 05:45:07;;;;;;;10.00;5.90;;;18.70;93.70;;;;;;5056391;28;21085;-72
2021/05/27 05:47:33;;;;;;;8.50;6.50;;;18.80;94.00;;;;;;5045671;28;20204;-73
2021/05/27 05:49:59;;;;;;;10.57;7.35;;;18.90;94.30;;;;;;5046771;28;20676;-72
2021/05/27 05:52:25;;;;;;;9.95;7.03;;;19.00;94.20;;;;;;5048610;28;20184;-73
2021/05/27 05:54:50;;;;;;;12.20;7.38;;;19.00;93.90;;;;;;5048699;28;20175;-72
2021/05/27 05:57:16;;;;;;;14.15;8.10;;;19.10;94.00;;;;;;5048747;28;20232;-71
2021/05/27 05:59:41;;;;;;;8.00;7.07;;;19.10;94.20;;;;;;5045146;28;20180;-73
2021/05/27 06:02:07;;;;;;;8.63;6.95;;;19.20;93.70;;;;;;5061350;28;20226;-73
2021/05/27 06:04:33;;;;;;;7.95;7.15;;;19.30;93.90;;;;;;5061875;28;20247;-74
2021/05/27 06:06:59;;;;;;;9.35;7.78;;;19.30;94.10;;;;;;5048239;28;20559;-72
2021/05/27 06:09:25;;;;;;;10.30;8.48;;;19.40;93.40;;;;;;5047221;28;20175;-72
2021/05/27 06:11:52;;;;;;;7.85;7.05;;;19.40;90.40;;;;;;5048802;28;20184;-71
2021/05/27 06:14:18;;;;;;;9.27;7.07;;;19.40;91.80;;;;;;5048121;28;20274;-70
2021/05/27 06:16:44;;;;;;;8.23;6.63;;;19.50;91.00;;;;;;5041855;28;20583;-71
2021/05/27 06:19:10;;;;;;;7.72;6.22;;;19.50;91.00;;;;;;5041579;28;20308;-71
2021/05/27 06:21:35;;;;;;;6.97;6.38;;;19.60;91.00;;;;;;5047469;28;20207;-72
2021/05/27 06:24:03;;;;;;;6.70;6.10;;;19.60;91.70;;;;;;5048058;28;20203;-71
2021/05/27 06:26:30;;;;;;;6.80;6.20;;;19.70;91.50;;;;;;5048375;28;20183;-71
2021/05/27 06:28:55;;;;;;;7.25;6.55;;;19.70;90.00;;;;;;5049085;28;20717;-71
2021/05/27 06:31:21;;;;;;;9.00;6.10;;;19.80;90.30;;;;;;5046318;28;20246;-73
2021/05/27 06:33:47;;;;;;;7.93;6.60;;;19.80;90.70;;;;;;5047813;28;20272;-71
2021/05/27 06:36:12;;;;;;;12.75;6.57;;;19.90;91.50;;;;;;5048806;28;20192;-71
2021/05/27 06:38:38;;;;;;;8.13;6.90;;;19.90;89.40;;;;;;5046584;28;20186;-71
2021/05/27 06:41:04;;;;;;;11.50;8.02;;;19.90;90.60;;;;;;5047917;28;20681;-70
2021/05/27 06:43:30;;;;;;;9.00;8.07;;;20.00;89.10;;;;;;5046440;28;20184;-71
2021/05/27 06:45:56;;;;;;;10.38;8.43;;;20.00;88.60;;;;;;5046570;28;20253;-70
2021/05/27 06:48:23;;;;;;;10.95;8.35;;;20.10;89.40;;;;;;5047834;28;20623;-70
2021/05/27 06:50:50;;;;;;;12.88;8.60;;;20.10;89.40;;;;;;5047172;28;20187;-71
2021/05/27 06:53:17;;;;;;;10.45;8.20;;;20.20;88.80;;;;;;5041995;28;20795;-71
2021/05/27 06:55:44;;;;;;;10.63;6.80;;;20.30;89.30;;;;;;5047904;28;20214;-71
2021/05/27 06:58:10;;;;;;;8.60;7.55;;;20.30;87.10;;;;;;5047792;28;20178;-71
2021/05/27 07:00:37;;;;;;;7.78;6.70;;;20.30;87.40;;;;;;5047748;28;20191;-70
2021/05/27 07:03:04;;;;;;;12.43;7.35;;;20.40;87.70;;;;;;5048315;28;20273;-71
2021/05/27 07:05:30;;;;;;;7.57;6.07;;;20.50;88.10;;;;;;5047563;28;20609;-71
2021/05/27 07:07:57;;;;;;;6.95;6.25;;;20.60;86.90;;;;;;5046328;28;20202;-71
2021/05/27 07:10:23;;;;;;;8.52;6.80;;;20.70;86.40;;;;;;5047577;28;20186;-71
2021/05/27 07:12:53;;;;;;;7.35;6.80;;;20.70;87.50;;;;;;5047243;28;20186;-71
2021/05/27 07:15:21;;;;;;;8.25;6.55;;;20.80;84.50;;;;;;5044880;28;20183;-71
2021/05/27 07:17:48;;;;;;;7.05;6.45;;;20.80;85.40;;;;;;5046793;28;20577;-70
2021/05/27 07:20:14;;;;;;;6.40;5.90;;;20.90;84.70;;;;;;5044504;28;20271;-71
2021/05/27 07:22:40;;;;;;;6.63;6.13;;;20.90;83.80;;;;;;5045661;28;20306;-72
2021/05/27 07:25:07;;;;;;;6.30;5.80;;;20.90;83.30;;;;;;5046587;28;21015;-71
2021/05/27 07:27:33;;;;;;;7.07;6.30;;;20.90;84.80;;;;;;5055527;28;20249;-71
2021/05/27 07:29:59;;;;;;;6.35;5.80;;;21.00;84.40;;;;;;5052934;28;20183;-71
2021/05/27 07:32:25;;;;;;;5.10;4.75;;;21.10;85.10;;;;;;5047829;28;20179;-72
2021/05/27 07:34:51;;;;;;;5.88;5.30;;;21.30;84.40;;;;;;5055686;28;20193;-72
2021/05/27 07:37:16;;;;;;;6.68;5.55;;;21.30;82.30;;;;;;5049244;28;20195;-72
2021/05/27 07:39:42;;;;;;;5.53;5.03;;;21.40;84.00;;;;;;5049339;28;20727;-72
2021/05/27 07:42:08;;;;;;;5.65;5.20;;;21.50;84.60;;;;;;5049904;28;21647;-72
2021/05/27 07:44:34;;;;;;;6.57;4.97;;;21.50;84.60;;;;;;5056176;28;20573;-72
2021/05/27 07:47:00;;;;;;;4.63;4.18;;;21.60;84.60;;;;;;5053164;28;20199;-72
2021/05/27 07:49:27;;;;;;;4.95;4.65;;;21.70;83.90;;;;;;5051961;28;20619;-72
2021/05/27 07:51:54;;;;;;;4.57;4.28;;;21.80;83.60;;;;;;5057658;28;20191;-72
2021/05/27 07:54:19;;;;;;;4.80;4.50;;;21.80;82.10;;;;;;5050864;28;20179;-71
2021/05/27 07:56:45;;;;;;;5.00;4.72;;;21.90;82.40;;;;;;5050575;28;20184;-72
2021/05/27 07:59:11;;;;;;;8.40;5.00;;;21.90;83.40;;;;;;5046981;28;20180;-72
2021/05/27 08:01:37;;;;;;;5.57;5.07;;;22.00;81.30;;;;;;5050593;28;20211;-72
2021/05/27 08:04:03;;;;;;;7.00;4.28;;;22.00;82.60;;;;;;5050425;28;20183;-72
2021/05/27 08:06:29;;;;;;;5.07;4.72;;;22.10;81.10;;;;;;5049008;28;20252;-72
2021/05/27 08:08:55;;;;;;;4.18;4.00;;;22.20;81.70;;;;;;5063013;28;20236;-72
2021/05/27 08:11:20;;;;;;;4.10;3.80;;;22.20;79.60;;;;;;5048336;28;20716;-72
2021/05/27 08:13:47;;;;;;;4.32;4.13;;;22.20;80.50;;;;;;5052852;28;20668;-72
2021/05/27 08:16:13;;;;;;;4.07;3.40;;;22.30;79.70;;;;;;5049762;28;20175;-72
2021/05/27 08:18:39;;;;;;;4.07;3.88;;;22.40;80.90;;;;;;5050599;28;20188;-72
2021/05/27 08:21:06;;;;;;;4.25;3.78;;;22.40;78.80;;;;;;5051154;28;20246;-72
2021/05/27 08:23:32;;;;;;;5.88;4.10;;;22.50;80.40;;;;;;5052440;28;20219;-73
2021/05/27 08:25:57;;;;;;;3.60;3.38;;;22.60;80.10;;;;;;5050551;28;20214;-72
2021/05/27 08:28:23;;;;;;;3.80;3.55;;;22.70;80.20;;;;;;5055582;28;20567;-70
2021/05/27 08:30:49;;;;;;;3.72;3.63;;;22.80;80.20;;;;;;5051786;28;20179;-71
2021/05/27 08:33:15;;;;;;;4.32;3.67;;;22.90;79.60;;;;;;5049750;28;20191;-71
2021/05/27 08:35:41;;;;;;;3.30;3.17;;;23.00;77.90;;;;;;5050115;28;20660;-71
2021/05/27 08:38:06;;;;;;;3.50;3.40;;;23.10;78.10;;;;;;5052262;28;20186;-72
2021/05/27 08:40:32;;;;;;;3.80;3.60;;;23.10;77.90;;;;;;5051796;28;20197;-72
2021/05/27 08:42:59;;;;;;;3.60;3.33;;;23.20;78.00;;;;;;5054279;28;20183;-72
2021/05/27 08:45:30;;;;;;;4.43;3.97;;;23.30;76.60;;;;;;5051411;28;20202;-71
2021/05/27 08:47:56;;;;;;;3.55;3.38;;;23.40;78.20;;;;;;5048414;28;20184;-71
2021/05/27 08:50:30;;;;;;;4.15;3.85;;;23.40;75.50;;;;;;5048557;28;20175;-71
2021/05/27 08:52:59;;;;;;;4.55;3.55;;;23.50;77.10;;;;;;5050049;28;20229;-71
2021/05/27 08:55:25;;;;;;;3.90;3.60;;;23.60;75.70;;;;;;5050135;28;20313;-72
2021/05/27 08:57:51;;;;;;;3.25;3.05;;;23.60;73.40;;;;;;5048237;28;20282;-72
2021/05/27 09:00:18;;;;;;;5.20;3.75;;;23.60;73.80;;;;;;5050215;28;20333;-72
2021/05/27 09:02:55;;;;;;;4.85;4.55;;;23.70;76.80;;;;;;5049623;28;20214;-73
2021/05/27 09:05:21;;;;;;;3.72;3.53;;;23.80;76.40;;;;;;5050040;28;20179;-73
2021/05/27 09:07:47;;;;;;;3.63;3.42;;;23.90;76.00;;;;;;5042860;28;20602;-73
2021/05/27 09:10:14;;;;;;;4.18;3.88;;;24.00;76.50;;;;;;5049823;28;20325;-73
2021/05/27 09:12:40;;;;;;;4.10;4.00;;;24.10;77.80;;;;;;5049773;28;20257;-75
2021/05/27 09:15:19;;;;;;;4.32;4.03;;;24.20;76.40;;;;;;5051314;28;20607;-73
2021/05/27 09:17:49;;;;;;;13.75;4.88;;;24.30;76.30;;;;;;5053822;28;20187;-71
2021/05/27 09:20:23;;;;;;;4.38;3.85;;;24.40;75.60;;;;;;5045833;28;20183;-73
2021/05/27 09:23:11;;;;;;;4.93;4.40;;;24.50;75.40;;;;;;5048831;28;20974;-71
2021/05/27 09:25:39;;;;;;;4.20;3.95;;;24.60;74.90;;;;;;5042068;28;20247;-72
2021/05/27 09:28:06;;;;;;;4.90;4.47;;;24.80;75.80;;;;;;5049936;28;20241;-74
2021/05/27 09:30:42;;;;;;;4.18;4.00;;;24.90;74.20;;;;;;5051633;28;20184;-72
2021/05/27 09:33:08;;;;;;;4.35;3.97;;;25.00;75.60;;;;;;5045973;28;20271;-71
2021/05/27 09:35:33;;;;;;;4.13;3.75;;;25.20;74.90;;;;;;5053492;28;20182;-72
2021/05/27 09:37:59;;;;;;;7.88;4.65;;;25.40;75.20;;;;;;5046803;28;20184;-71
2021/05/27 09:40:37;;;;;;;6.13;4.45;;;25.70;73.50;;;;;;5047276;28;20267;-70
2021/05/27 09:43:05;;;;;;;4.20;3.80;;;25.70;71.60;;;;;;5051913;28;20193;-71
2021/05/27 09:45:32;;;;;;;6.82;4.65;;;25.70;72.80;;;;;;5058816;28;20237;-71
2021/05/27 09:47:58;;;;;;;6.45;4.30;;;25.80;73.00;;;;;;5048828;28;20190;-70
2021/05/27 09:50:31;;;;;;;4.35;4.07;;;25.60;72.10;;;;;;5048104;28;20206;-68
2021/05/27 09:53:20;;;;;;;4.15;3.95;;;25.50;72.40;;;;;;5047196;28;20249;-69
2021/05/27 09:55:46;;;;;;;4.40;4.00;;;25.40;73.80;;;;;;5047870;28;20954;-70
2021/05/27 09:58:14;;;;;;;6.43;4.63;;;25.40;74.10;;;;;;5047382;28;20292;-72
2021/05/27 10:00:43;;;;;;;3.95;3.22;;;25.30;73.80;;;;;;5053908;28;20188;-70
2021/05/27 10:03:33;;;;;;;3.97;3.50;;;25.10;72.50;;;;;;5045409;28;20195;-71
2021/05/27 10:06:01;;;;;;;3.70;3.60;;;25.00;73.30;;;;;;4999674;28;20361;-71
2021/05/27 10:08:29;;;;;;;3.92;3.72;;;24.80;74.30;;;;;;5003545;28;20203;-70
2021/05/27 10:10:55;;;;;;;3.70;3.42;;;24.80;73.90;;;;;;5002679;28;20216;-70
2021/05/27 10:13:27;;;;;;;4.13;3.83;;;24.70;74.50;;;;;;5005200;28;20586;-70
2021/05/27 10:15:53;;;;;;;6.28;4.30;;;24.80;75.70;;;;;;4997955;28;20235;-71
2021/05/27 10:18:21;;;;;;;3.28;3.03;;;25.00;75.80;;;;;;4999965;28;20193;-70
2021/05/27 10:20:48;;;;;;;5.07;3.45;;;25.50;74.70;;;;;;4997481;28;20188;-69
2021/05/27 10:23:15;;;;;;;3.75;3.15;;;26.00;74.20;;;;;;5001558;28;20194;-70
2021/05/27 10:25:42;;;;;;;3.50;3.40;;;26.40;73.30;;;;;;5004488;28;20181;-70
2021/05/27 10:28:15;;;;;;;3.30;3.20;;;26.80;72.60;;;;;;5005712;28;20177;-69
2021/05/27 10:30:43;;;;;;;3.92;2.58;;;27.40;69.80;;;;;;5002934;28;20279;-69
2021/05/27 10:33:16;;;;;;;2.22;2.20;;;27.90;68.10;;;;;;5002077;28;20244;-71
2021/05/27 10:36:02;;;;;;;3.95;2.80;;;28.50;64.60;;;;;;5000766;28;20201;-71
2021/05/27 10:41:16;;;;;;;3.85;2.25;;;29.40;62.60;;;;;;5001676;28;20733;-70
2021/05/27 10:44:10;;;;;;;2.20;2.10;;;29.70;61.40;;;;;;5032769;28;20208;-72
2021/05/27 10:46:41;;;;;;;3.80;2.90;;;29.90;61.70;;;;;;5023348;28;20196;-71
2021/05/27 10:49:08;;;;;;;2.78;2.53;;;29.70;59.60;;;;;;5026409;28;20211;-70
2021/05/27 10:54:00;;;;;;;3.15;2.85;;;29.40;63.30;;;;;;5025096;28;20191;-73
2021/05/27 10:56:35;;;;;;;5.63;3.28;;;29.10;64.40;;;;;;5024826;28;20249;-72
2021/05/27 10:59:01;;;;;;;3.28;3.08;;;28.80;63.20;;;;;;5021861;28;20602;-71
2021/05/27 11:01:31;;;;;;;3.70;3.40;;;28.50;63.10;;;;;;5022771;28;20208;-71
2021/05/27 11:04:02;;;;;;;4.15;3.05;;;28.10;65.80;;;;;;5023798;28;20271;-70
2021/05/27 11:06:44;;;;;;;2.88;2.78;;;27.70;64.90;;;;;;5023794;28;20992;-71
2021/05/27 11:11:57;;;;;;;3.58;3.00;;;27.80;65.20;;;;;;5026701;28;20203;-70
2021/05/27 11:14:41;;;;;;;5.65;2.35;;;28.30;64.70;;;;;;5026929;28;20286;-71
2021/05/27 11:17:26;;;;;;;2.05;1.85;;;28.70;63.40;;;;;;5029817;28;20228;-69
2021/05/27 11:19:59;;;;;;;5.20;2.72;;;29.30;60.70;;;;;;5001885;28;20180;-69
2021/05/27 11:22:33;;;;;;;6.53;3.10;;;29.40;60.90;;;;;;5025542;28;20212;-70
2021/05/27 11:25:12;;;;;;;2.55;2.38;;;29.00;61.10;;;;;;5045089;28;20222;-70
2021/05/27 11:27:51;;;;;;;3.10;2.10;;;28.40;60.90;;;;;;5047013;28;20180;-70
2021/05/27 11:30:21;;;;;;;3.42;2.28;;;27.70;61.10;;;;;;5045312;28;20252;-70
2021/05/27 11:33:03;;;;;;;3.13;2.20;;;26.80;61.20;;;;;;5043870;28;20183;-70
2021/05/27 11:35:31;;;;;;;1.80;1.77;;;26.40;62.50;;;;;;5054908;28;20230;-70
2021/05/27 11:37:57;;;;;;;4.05;2.10;;;26.20;63.90;;;;;;5047107;28;20265;-69
2021/05/27 11:40:30;;;;;;;1.80;1.80;;;26.10;63.00;;;;;;5048586;28;20194;-70
2021/05/27 11:42:55;;;;;;;1.60;1.60;;;25.90;63.40;;;;;;5046019;28;20218;-70
2021/05/27 11:45:24;;;;;;;1.98;1.73;;;25.90;62.90;;;;;;5038989;28;20648;-70
2021/05/27 11:48:16;;;;;;;2.63;2.00;;;26.00;65.40;;;;;;5046354;28;20198;-70
2021/05/27 11:50:42;;;;;;;2.80;2.70;;;26.00;63.70;;;;;;5050217;28;20175;-70
2021/05/27 11:53:08;;;;;;;3.83;2.78;;;25.80;65.10;;;;;;5045382;28;20630;-70
2021/05/27 11:55:35;;;;;;;2.95;2.75;;;25.70;66.80;;;;;;5045207;28;20179;-70
2021/05/27 11:58:02;;;;;;;2.90;2.63;;;25.60;68.20;;;;;;5051125;28;20681;-71
2021/05/27 12:00:28;;;;;;;3.40;3.03;;;25.50;68.50;;;;;;5045991;28;20207;-70
2021/05/27 12:02:55;;;;;;;3.22;3.03;;;25.50;69.70;;;;;;5032112;28;20628;-70
2021/05/27 12:05:30;;;;;;;3.25;3.13;;;25.50;70.20;;;;;;5043550;28;20258;-70
2021/05/27 12:07:59;;;;;;;2.78;2.70;;;25.30;69.60;;;;;;5045313;28;20187;-70
2021/05/27 12:10:49;;;;;;;3.60;3.38;;;25.10;69.90;;;;;;5047461;28;20203;-70
2021/05/27 12:13:23;;;;;;;3.55;3.00;;;25.00;70.80;;;;;;4997990;28;20275;-71
2021/05/27 12:15:50;;;;;;;3.53;3.25;;;24.80;69.30;;;;;;5024010;28;20288;-70
2021/05/27 12:18:20;;;;;;;2.97;2.75;;;24.50;69.20;;;;;;5023366;28;20200;-70
2021/05/27 12:20:48;;;;;;;3.15;3.03;;;24.40;69.50;;;;;;5019057;28;20184;-70
2021/05/27 12:23:16;;;;;;;4.50;3.35;;;24.20;70.10;;;;;;5012846;28;20188;-70
2021/05/27 12:25:47;;;;;;;3.88;3.50;;;24.00;70.90;;;;;;5011608;28;20204;-70
2021/05/27 12:28:19;;;;;;;2.95;2.75;;;23.70;71.70;;;;;;5025400;28;20234;-70
2021/05/27 12:30:56;;;;;;;3.10;2.95;;;23.30;73.70;;;;;;5036777;28;20733;-70
2021/05/27 12:33:27;;;;;;;3.28;2.80;;;23.10;74.50;;;;;;5033186;28;20175;-70
2021/05/27 12:35:54;;;;;;;3.40;3.20;;;23.00;72.70;;;;;;5023370;28;20196;-70
2021/05/27 12:38:48;;;;;;;2.92;2.83;;;22.90;74.80;;;;;;5036761;28;20343;-69
2021/05/27 12:41:15;;;;;;;3.38;3.28;;;22.80;76.20;;;;;;5027247;28;20219;-69
2021/05/27 12:43:48;;;;;;;2.95;2.85;;;22.60;75.50;;;;;;5038356;28;20292;-69
2021/05/27 12:46:16;;;;;;;3.03;2.90;;;22.50;74.90;;;;;;5031637;28;20194;-69
2021/05/27 12:48:48;;;;;;;4.22;2.67;;;22.30;71.90;;;;;;5022725;28;20180;-70
2021/05/27 12:51:15;;;;;;;2.83;2.72;;;22.20;74.10;;;;;;5025275;28;20280;-69
2021/05/27 12:53:46;;;;;;;2.72;2.50;;;22.10;71.60;;;;;;5026793;28;20185;-69
2021/05/27 12:56:22;;;;;;;3.13;2.97;;;22.10;73.40;;;;;;5026026;28;20279;-68
2021/05/27 12:58:48;;;;;;;2.78;2.67;;;22.10;72.50;;;;;;5023338;28;20263;-69
2021/05/27 13:01:15;;;;;;;4.75;2.85;;;22.10;73.60;;;;;;5027151;28;20303;-70
2021/05/27 13:03:51;;;;;;;3.10;2.85;;;22.20;74.60;;;;;;5026427;28;20189;-71